sensor_id;sensor_type;location;lat;lon;timestamp;P1;durP1;ratioP1;P2;durP2;ratioP2
42602;SDS011;28233;55.748;48.752;2023-04-25T00:01:31;9.77;;;2.55;;
42602;SDS011;28233;55.748;48.752;2023-04-25T00:03:38;5.40;;;2.30;;
42602;SDS011;28233;55.748;48.752;2023-04-25T00:05:41;6.40;;;2.25;;
42602;SDS011;28233;55.748;48.752;2023-04-25T00:07:44;4.63;;;1.45;;
42602;SDS011;28233;55.748;48.752;2023-04-25T00:09:48;6.03;;;2.20;;
42602;SDS011;28233;55.748;48.752;2023-04-25T00:11:50;6.25;;;1.92;;
42602;SDS011;28233;55.748;48.752;2023-04-25T00:13:53;7.78;;;2.70;;
42602;SDS011;28233;55.748;48.752;2023-04-25T00:15:56;6.57;;;2.47;;
42602;SDS011;28233;55.748;48.752;2023-04-25T00:18:00;3.60;;;1.90;;
42602;SDS011;28233;55.748;48.752;2023-04-25T00:20:03;3.88;;;2.28;;
42602;SDS011;28233;55.748;48.752;2023-04-25T00:22:12;5.47;;;2.83;;
42602;SDS011;28233;55.748;48.752;2023-04-25T00:24:15;4.40;;;2.10;;
42602;SDS011;28233;55.748;48.752;2023-04-25T00:26:18;5.47;;;2.25;;
42602;SDS011;28233;55.748;48.752;2023-04-25T00:28:20;5.32;;;1.98;;
42602;SDS011;28233;55.748;48.752;2023-04-25T00:30:23;7.68;;;2.25;;
42602;SDS011;28233;55.748;48.752;2023-04-25T00:32:26;6.82;;;2.42;;
42602;SDS011;28233;55.748;48.752;2023-04-25T00:34:28;5.28;;;2.63;;
42602;SDS011;28233;55.748;48.752;2023-04-25T00:36:31;8.80;;;2.40;;
42602;SDS011;28233;55.748;48.752;2023-04-25T00:38:34;13.95;;;2.83;;
42602;SDS011;28233;55.748;48.752;2023-04-25T00:40:36;8.25;;;2.67;;
42602;SDS011;28233;55.748;48.752;2023-04-25T00:42:39;4.35;;;3.00;;
42602;SDS011;28233;55.748;48.752;2023-04-25T00:44:43;5.38;;;2.70;;
42602;SDS011;28233;55.748;48.752;2023-04-25T00:46:47;6.90;;;2.33;;
42602;SDS011;28233;55.748;48.752;2023-04-25T00:48:51;6.25;;;2.70;;
42602;SDS011;28233;55.748;48.752;2023-04-25T00:50:55;8.45;;;3.72;;
42602;SDS011;28233;55.748;48.752;2023-04-25T00:52:59;8.10;;;2.53;;
42602;SDS011;28233;55.748;48.752;2023-04-25T00:55:03;8.25;;;3.17;;
42602;SDS011;28233;55.748;48.752;2023-04-25T00:57:06;7.38;;;2.55;;
42602;SDS011;28233;55.748;48.752;2023-04-25T00:59:09;14.98;;;3.92;;
42602;SDS011;28233;55.748;48.752;2023-04-25T01:01:12;6.38;;;2.45;;
42602;SDS011;28233;55.748;48.752;2023-04-25T01:03:15;4.80;;;3.05;;
42602;SDS011;28233;55.748;48.752;2023-04-25T01:05:19;10.65;;;3.17;;
42602;SDS011;28233;55.748;48.752;2023-04-25T01:07:22;6.68;;;4.03;;
42602;SDS011;28233;55.748;48.752;2023-04-25T01:09:25;9.02;;;3.58;;
42602;SDS011;28233;55.748;48.752;2023-04-25T01:11:28;10.25;;;3.85;;
42602;SDS011;28233;55.748;48.752;2023-04-25T01:13:30;11.07;;;4.40;;
42602;SDS011;28233;55.748;48.752;2023-04-25T01:15:34;6.65;;;4.13;;
42602;SDS011;28233;55.748;48.752;2023-04-25T01:17:38;7.53;;;4.00;;
42602;SDS011;28233;55.748;48.752;2023-04-25T01:19:43;10.38;;;3.95;;
42602;SDS011;28233;55.748;48.752;2023-04-25T01:21:48;9.40;;;4.03;;
42602;SDS011;28233;55.748;48.752;2023-04-25T01:23:50;8.88;;;3.95;;
42602;SDS011;28233;55.748;48.752;2023-04-25T01:25:54;7.43;;;3.65;;
42602;SDS011;28233;55.748;48.752;2023-04-25T01:27:57;7.45;;;4.43;;
42602;SDS011;28233;55.748;48.752;2023-04-25T01:30:00;7.20;;;3.63;;
42602;SDS011;28233;55.748;48.752;2023-04-25T01:32:07;5.70;;;3.38;;
42602;SDS011;28233;55.748;48.752;2023-04-25T01:34:10;9.75;;;4.20;;
42602;SDS011;28233;55.748;48.752;2023-04-25T01:36:14;8.07;;;3.60;;
42602;SDS011;28233;55.748;48.752;2023-04-25T01:38:17;11.73;;;4.57;;
42602;SDS011;28233;55.748;48.752;2023-04-25T01:40:20;9.15;;;4.22;;
42602;SDS011;28233;55.748;48.752;2023-04-25T01:42:24;9.77;;;4.45;;
42602;SDS011;28233;55.748;48.752;2023-04-25T01:44:27;8.57;;;4.32;;
42602;SDS011;28233;55.748;48.752;2023-04-25T01:46:30;8.57;;;3.90;;
42602;SDS011;28233;55.748;48.752;2023-04-25T01:48:33;9.02;;;4.35;;
42602;SDS011;28233;55.748;48.752;2023-04-25T01:50:36;6.60;;;3.47;;
42602;SDS011;28233;55.748;48.752;2023-04-25T01:52:40;9.20;;;3.53;;
42602;SDS011;28233;55.748;48.752;2023-04-25T01:54:43;8.93;;;3.75;;
42602;SDS011;28233;55.748;48.752;2023-04-25T01:56:50;7.90;;;3.90;;
42602;SDS011;28233;55.748;48.752;2023-04-25T01:58:53;11.13;;;3.25;;
42602;SDS011;28233;55.748;48.752;2023-04-25T02:00:56;8.02;;;3.63;;
42602;SDS011;28233;55.748;48.752;2023-04-25T02:02:58;9.18;;;3.33;;
42602;SDS011;28233;55.748;48.752;2023-04-25T02:05:01;7.25;;;2.97;;
42602;SDS011;28233;55.748;48.752;2023-04-25T02:07:05;6.05;;;2.55;;
42602;SDS011;28233;55.748;48.752;2023-04-25T02:09:07;6.25;;;3.17;;
42602;SDS011;28233;55.748;48.752;2023-04-25T02:11:10;6.03;;;3.00;;
42602;SDS011;28233;55.748;48.752;2023-04-25T02:13:13;4.43;;;2.72;;
42602;SDS011;28233;55.748;48.752;2023-04-25T02:15:16;4.53;;;2.40;;
42602;SDS011;28233;55.748;48.752;2023-04-25T02:17:19;9.93;;;2.55;;
42602;SDS011;28233;55.748;48.752;2023-04-25T02:19:23;6.30;;;2.70;;
42602;SDS011;28233;55.748;48.752;2023-04-25T02:21:25;5.18;;;2.25;;
42602;SDS011;28233;55.748;48.752;2023-04-25T02:23:28;10.75;;;3.28;;
42602;SDS011;28233;55.748;48.752;2023-04-25T02:25:31;6.03;;;2.55;;
42602;SDS011;28233;55.748;48.752;2023-04-25T02:27:33;4.80;;;2.35;;
42602;SDS011;28233;55.748;48.752;2023-04-25T02:29:36;7.22;;;2.85;;
42602;SDS011;28233;55.748;48.752;2023-04-25T02:31:40;5.55;;;2.25;;
42602;SDS011;28233;55.748;48.752;2023-04-25T02:33:43;5.22;;;2.67;;
42602;SDS011;28233;55.748;48.752;2023-04-25T02:35:45;5.15;;;2.58;;
42602;SDS011;28233;55.748;48.752;2023-04-25T02:37:48;7.30;;;2.85;;
42602;SDS011;28233;55.748;48.752;2023-04-25T02:39:51;5.70;;;2.33;;
42602;SDS011;28233;55.748;48.752;2023-04-25T02:41:54;4.50;;;2.17;;
42602;SDS011;28233;55.748;48.752;2023-04-25T02:43:56;6.95;;;2.00;;
42602;SDS011;28233;55.748;48.752;2023-04-25T02:45:59;5.78;;;2.45;;
42602;SDS011;28233;55.748;48.752;2023-04-25T02:48:02;9.32;;;3.45;;
42602;SDS011;28233;55.748;48.752;2023-04-25T02:50:05;3.58;;;2.05;;
42602;SDS011;28233;55.748;48.752;2023-04-25T02:52:08;3.88;;;2.13;;
42602;SDS011;28233;55.748;48.752;2023-04-25T02:54:11;8.57;;;2.20;;
42602;SDS011;28233;55.748;48.752;2023-04-25T02:56:14;4.50;;;2.05;;
42602;SDS011;28233;55.748;48.752;2023-04-25T02:58:16;4.97;;;1.98;;
42602;SDS011;28233;55.748;48.752;2023-04-25T03:00:19;6.30;;;3.13;;
42602;SDS011;28233;55.748;48.752;2023-04-25T03:02:22;8.30;;;2.35;;
42602;SDS011;28233;55.748;48.752;2023-04-25T03:04:24;5.28;;;2.03;;
42602;SDS011;28233;55.748;48.752;2023-04-25T03:06:27;8.70;;;2.38;;
42602;SDS011;28233;55.748;48.752;2023-04-25T03:08:30;3.63;;;1.88;;
42602;SDS011;28233;55.748;48.752;2023-04-25T03:10:34;8.18;;;2.50;;
42602;SDS011;28233;55.748;48.752;2023-04-25T03:12:37;6.88;;;2.75;;
42602;SDS011;28233;55.748;48.752;2023-04-25T03:14:40;5.07;;;2.80;;
42602;SDS011;28233;55.748;48.752;2023-04-25T03:16:42;8.50;;;2.65;;
42602;SDS011;28233;55.748;48.752;2023-04-25T03:18:45;8.30;;;2.92;;
42602;SDS011;28233;55.748;48.752;2023-04-25T03:20:47;6.43;;;2.22;;
42602;SDS011;28233;55.748;48.752;2023-04-25T03:22:50;8.40;;;2.33;;
42602;SDS011;28233;55.748;48.752;2023-04-25T03:24:53;5.80;;;2.78;;
42602;SDS011;28233;55.748;48.752;2023-04-25T03:26:55;3.95;;;2.25;;
42602;SDS011;28233;55.748;48.752;2023-04-25T03:28:58;3.03;;;1.75;;
42602;SDS011;28233;55.748;48.752;2023-04-25T03:31:01;4.05;;;2.65;;
42602;SDS011;28233;55.748;48.752;2023-04-25T03:33:03;4.32;;;2.30;;
42602;SDS011;28233;55.748;48.752;2023-04-25T03:35:06;12.85;;;2.90;;
42602;SDS011;28233;55.748;48.752;2023-04-25T03:37:09;3.92;;;2.47;;
42602;SDS011;28233;55.748;48.752;2023-04-25T03:39:12;9.75;;;2.40;;
42602;SDS011;28233;55.748;48.752;2023-04-25T03:41:14;2.97;;;1.80;;
42602;SDS011;28233;55.748;48.752;2023-04-25T03:43:17;7.57;;;2.50;;
42602;SDS011;28233;55.748;48.752;2023-04-25T03:45:20;8.23;;;2.67;;
42602;SDS011;28233;55.748;48.752;2023-04-25T03:47:23;6.90;;;1.98;;
42602;SDS011;28233;55.748;48.752;2023-04-25T03:49:25;7.65;;;3.20;;
42602;SDS011;28233;55.748;48.752;2023-04-25T03:51:28;8.10;;;2.95;;
42602;SDS011;28233;55.748;48.752;2023-04-25T03:53:31;8.60;;;2.10;;
42602;SDS011;28233;55.748;48.752;2023-04-25T03:55:33;9.48;;;1.90;;
42602;SDS011;28233;55.748;48.752;2023-04-25T03:57:36;7.53;;;2.28;;
42602;SDS011;28233;55.748;48.752;2023-04-25T03:59:39;9.23;;;2.67;;
42602;SDS011;28233;55.748;48.752;2023-04-25T04:01:42;9.82;;;2.20;;
42602;SDS011;28233;55.748;48.752;2023-04-25T04:03:44;10.60;;;2.42;;
42602;SDS011;28233;55.748;48.752;2023-04-25T04:05:47;9.07;;;2.13;;
42602;SDS011;28233;55.748;48.752;2023-04-25T04:07:50;4.75;;;2.58;;
42602;SDS011;28233;55.748;48.752;2023-04-25T04:09:53;7.65;;;2.20;;
42602;SDS011;28233;55.748;48.752;2023-04-25T04:11:56;4.60;;;2.15;;
42602;SDS011;28233;55.748;48.752;2023-04-25T04:13:58;10.77;;;2.33;;
42602;SDS011;28233;55.748;48.752;2023-04-25T04:16:02;12.27;;;2.72;;
42602;SDS011;28233;55.748;48.752;2023-04-25T04:18:06;3.47;;;1.65;;
42602;SDS011;28233;55.748;48.752;2023-04-25T04:20:09;6.47;;;2.25;;
42602;SDS011;28233;55.748;48.752;2023-04-25T04:22:12;5.65;;;2.00;;
42602;SDS011;28233;55.748;48.752;2023-04-25T04:24:14;6.07;;;2.17;;
42602;SDS011;28233;55.748;48.752;2023-04-25T04:26:18;6.63;;;2.03;;
42602;SDS011;28233;55.748;48.752;2023-04-25T04:28:21;6.15;;;1.55;;
42602;SDS011;28233;55.748;48.752;2023-04-25T04:30:24;8.68;;;1.60;;
42602;SDS011;28233;55.748;48.752;2023-04-25T04:32:27;5.28;;;2.25;;
42602;SDS011;28233;55.748;48.752;2023-04-25T04:34:30;3.72;;;1.95;;
42602;SDS011;28233;55.748;48.752;2023-04-25T04:36:33;7.50;;;2.15;;
42602;SDS011;28233;55.748;48.752;2023-04-25T04:38:36;3.38;;;1.60;;
42602;SDS011;28233;55.748;48.752;2023-04-25T04:40:40;8.40;;;2.30;;
42602;SDS011;28233;55.748;48.752;2023-04-25T04:42:45;3.00;;;1.67;;
42602;SDS011;28233;55.748;48.752;2023-04-25T04:44:47;7.60;;;1.83;;
42602;SDS011;28233;55.748;48.752;2023-04-25T04:46:50;3.90;;;2.05;;
42602;SDS011;28233;55.748;48.752;2023-04-25T04:48:53;6.47;;;1.88;;
42602;SDS011;28233;55.748;48.752;2023-04-25T04:50:58;3.97;;;1.80;;
42602;SDS011;28233;55.748;48.752;2023-04-25T04:53:01;3.72;;;1.67;;
42602;SDS011;28233;55.748;48.752;2023-04-25T04:55:04;2.55;;;1.40;;
42602;SDS011;28233;55.748;48.752;2023-04-25T04:57:07;5.25;;;1.30;;
42602;SDS011;28233;55.748;48.752;2023-04-25T04:59:10;6.88;;;2.08;;
42602;SDS011;28233;55.748;48.752;2023-04-25T05:01:13;4.03;;;1.40;;
42602;SDS011;28233;55.748;48.752;2023-04-25T05:03:18;5.07;;;1.95;;
42602;SDS011;28233;55.748;48.752;2023-04-25T05:05:20;7.05;;;2.15;;
42602;SDS011;28233;55.748;48.752;2023-04-25T05:07:23;2.05;;;1.13;;
42602;SDS011;28233;55.748;48.752;2023-04-25T05:09:27;2.83;;;1.10;;
42602;SDS011;28233;55.748;48.752;2023-04-25T05:11:29;3.95;;;1.77;;
42602;SDS011;28233;55.748;48.752;2023-04-25T05:13:32;3.88;;;1.17;;
42602;SDS011;28233;55.748;48.752;2023-04-25T05:15:35;3.38;;;1.88;;
42602;SDS011;28233;55.748;48.752;2023-04-25T05:17:38;6.97;;;1.98;;
42602;SDS011;28233;55.748;48.752;2023-04-25T05:19:41;7.45;;;2.00;;
42602;SDS011;28233;55.748;48.752;2023-04-25T05:21:43;3.47;;;1.75;;
42602;SDS011;28233;55.748;48.752;2023-04-25T05:23:46;5.35;;;1.73;;
42602;SDS011;28233;55.748;48.752;2023-04-25T05:25:49;4.35;;;1.42;;
42602;SDS011;28233;55.748;48.752;2023-04-25T05:27:51;4.97;;;1.65;;
42602;SDS011;28233;55.748;48.752;2023-04-25T05:29:54;8.85;;;2.05;;
42602;SDS011;28233;55.748;48.752;2023-04-25T05:31:57;7.35;;;1.50;;
42602;SDS011;28233;55.748;48.752;2023-04-25T05:33:59;7.07;;;1.60;;
42602;SDS011;28233;55.748;48.752;2023-04-25T05:36:02;8.75;;;1.70;;
42602;SDS011;28233;55.748;48.752;2023-04-25T05:38:05;5.97;;;1.52;;
42602;SDS011;28233;55.748;48.752;2023-04-25T05:40:07;2.33;;;1.30;;
42602;SDS011;28233;55.748;48.752;2023-04-25T05:42:10;3.55;;;1.30;;
42602;SDS011;28233;55.748;48.752;2023-04-25T05:44:13;4.72;;;1.25;;
42602;SDS011;28233;55.748;48.752;2023-04-25T05:46:18;9.35;;;1.73;;
42602;SDS011;28233;55.748;48.752;2023-04-25T05:48:20;9.73;;;1.80;;
42602;SDS011;28233;55.748;48.752;2023-04-25T05:50:23;4.95;;;1.17;;
42602;SDS011;28233;55.748;48.752;2023-04-25T05:52:25;4.65;;;1.27;;
42602;SDS011;28233;55.748;48.752;2023-04-25T05:54:28;3.38;;;1.20;;
42602;SDS011;28233;55.748;48.752;2023-04-25T05:56:31;3.58;;;1.38;;
42602;SDS011;28233;55.748;48.752;2023-04-25T05:58:33;4.57;;;1.48;;
42602;SDS011;28233;55.748;48.752;2023-04-25T06:00:38;5.40;;;1.60;;
42602;SDS011;28233;55.748;48.752;2023-04-25T06:02:40;5.22;;;1.58;;
42602;SDS011;28233;55.748;48.752;2023-04-25T06:04:43;9.60;;;2.70;;
42602;SDS011;28233;55.748;48.752;2023-04-25T06:06:46;4.45;;;1.52;;
42602;SDS011;28233;55.748;48.752;2023-04-25T06:08:49;9.63;;;2.25;;
42602;SDS011;28233;55.748;48.752;2023-04-25T06:10:52;5.35;;;2.08;;
42602;SDS011;28233;55.748;48.752;2023-04-25T06:12:55;5.00;;;1.70;;
42602;SDS011;28233;55.748;48.752;2023-04-25T06:14:57;5.43;;;1.50;;
42602;SDS011;28233;55.748;48.752;2023-04-25T06:17:00;1.88;;;1.15;;
42602;SDS011;28233;55.748;48.752;2023-04-25T06:19:08;8.45;;;1.95;;
42602;SDS011;28233;55.748;48.752;2023-04-25T06:21:10;5.20;;;1.60;;
42602;SDS011;28233;55.748;48.752;2023-04-25T06:23:13;5.40;;;1.77;;
42602;SDS011;28233;55.748;48.752;2023-04-25T06:25:16;3.33;;;1.50;;
42602;SDS011;28233;55.748;48.752;2023-04-25T06:27:18;6.95;;;2.47;;
42602;SDS011;28233;55.748;48.752;2023-04-25T06:29:21;5.80;;;1.98;;
42602;SDS011;28233;55.748;48.752;2023-04-25T06:31:24;7.15;;;1.60;;
42602;SDS011;28233;55.748;48.752;2023-04-25T06:33:27;4.35;;;1.33;;
42602;SDS011;28233;55.748;48.752;2023-04-25T06:35:30;11.98;;;2.33;;
42602;SDS011;28233;55.748;48.752;2023-04-25T06:37:33;3.10;;;1.38;;
42602;SDS011;28233;55.748;48.752;2023-04-25T06:39:35;8.32;;;2.20;;
42602;SDS011;28233;55.748;48.752;2023-04-25T06:41:42;3.80;;;2.03;;
42602;SDS011;28233;55.748;48.752;2023-04-25T06:43:44;8.13;;;2.35;;
42602;SDS011;28233;55.748;48.752;2023-04-25T06:45:47;4.63;;;2.22;;
42602;SDS011;28233;55.748;48.752;2023-04-25T06:47:49;7.18;;;2.40;;
42602;SDS011;28233;55.748;48.752;2023-04-25T06:49:52;6.22;;;2.03;;
42602;SDS011;28233;55.748;48.752;2023-04-25T06:51:55;7.43;;;1.83;;
42602;SDS011;28233;55.748;48.752;2023-04-25T06:53:58;6.85;;;2.35;;
42602;SDS011;28233;55.748;48.752;2023-04-25T06:56:01;6.15;;;1.55;;
42602;SDS011;28233;55.748;48.752;2023-04-25T06:58:05;4.68;;;1.40;;
42602;SDS011;28233;55.748;48.752;2023-04-25T07:00:07;12.50;;;1.73;;
42602;SDS011;28233;55.748;48.752;2023-04-25T07:02:11;8.32;;;2.72;;
42602;SDS011;28233;55.748;48.752;2023-04-25T07:04:14;6.80;;;1.63;;
42602;SDS011;28233;55.748;48.752;2023-04-25T07:06:17;4.68;;;1.30;;
42602;SDS011;28233;55.748;48.752;2023-04-25T07:08:20;6.88;;;1.40;;
42602;SDS011;28233;55.748;48.752;2023-04-25T07:10:23;6.03;;;1.20;;
42602;SDS011;28233;55.748;48.752;2023-04-25T07:12:26;6.97;;;1.92;;
42602;SDS011;28233;55.748;48.752;2023-04-25T07:14:28;6.65;;;1.50;;
42602;SDS011;28233;55.748;48.752;2023-04-25T07:16:31;2.95;;;1.40;;
42602;SDS011;28233;55.748;48.752;2023-04-25T07:18:33;7.75;;;1.58;;
42602;SDS011;28233;55.748;48.752;2023-04-25T07:20:36;7.07;;;1.10;;
42602;SDS011;28233;55.748;48.752;2023-04-25T07:22:38;4.05;;;1.98;;
42602;SDS011;28233;55.748;48.752;2023-04-25T07:24:41;5.70;;;1.20;;
42602;SDS011;28233;55.748;48.752;2023-04-25T07:26:44;6.88;;;1.60;;
42602;SDS011;28233;55.748;48.752;2023-04-25T07:28:47;3.85;;;1.50;;
42602;SDS011;28233;55.748;48.752;2023-04-25T07:30:53;5.07;;;1.23;;
42602;SDS011;28233;55.748;48.752;2023-04-25T07:32:55;10.15;;;1.55;;
42602;SDS011;28233;55.748;48.752;2023-04-25T07:34:58;5.35;;;2.10;;
42602;SDS011;28233;55.748;48.752;2023-04-25T07:37:00;5.20;;;1.40;;
42602;SDS011;28233;55.748;48.752;2023-04-25T07:39:03;7.43;;;2.10;;
42602;SDS011;28233;55.748;48.752;2023-04-25T07:41:06;4.20;;;1.52;;
42602;SDS011;28233;55.748;48.752;2023-04-25T07:43:08;11.65;;;1.92;;
42602;SDS011;28233;55.748;48.752;2023-04-25T07:45:14;6.15;;;2.13;;
42602;SDS011;28233;55.748;48.752;2023-04-25T07:47:17;9.32;;;1.23;;
42602;SDS011;28233;55.748;48.752;2023-04-25T07:49:21;3.72;;;1.33;;
42602;SDS011;28233;55.748;48.752;2023-04-25T07:51:24;7.32;;;1.75;;
42602;SDS011;28233;55.748;48.752;2023-04-25T07:53:26;7.60;;;1.95;;
42602;SDS011;28233;55.748;48.752;2023-04-25T07:55:29;38.65;;;3.00;;
42602;SDS011;28233;55.748;48.752;2023-04-25T07:57:32;7.50;;;1.83;;
42602;SDS011;28233;55.748;48.752;2023-04-25T07:59:34;5.97;;;1.52;;
42602;SDS011;28233;55.748;48.752;2023-04-25T08:01:37;6.53;;;1.83;;
42602;SDS011;28233;55.748;48.752;2023-04-25T08:03:39;10.07;;;2.40;;
42602;SDS011;28233;55.748;48.752;2023-04-25T08:05:43;10.25;;;1.65;;
42602;SDS011;28233;55.748;48.752;2023-04-25T08:07:45;12.40;;;2.00;;
42602;SDS011;28233;55.748;48.752;2023-04-25T08:09:48;6.55;;;1.67;;
42602;SDS011;28233;55.748;48.752;2023-04-25T08:11:51;11.57;;;1.88;;
42602;SDS011;28233;55.748;48.752;2023-04-25T08:13:53;11.98;;;1.52;;
42602;SDS011;28233;55.748;48.752;2023-04-25T08:15:56;2.05;;;1.00;;
42602;SDS011;28233;55.748;48.752;2023-04-25T08:17:59;7.03;;;1.80;;
42602;SDS011;28233;55.748;48.752;2023-04-25T08:20:02;10.05;;;2.55;;
42602;SDS011;28233;55.748;48.752;2023-04-25T08:22:08;9.20;;;1.67;;
42602;SDS011;28233;55.748;48.752;2023-04-25T08:24:11;13.25;;;2.30;;
42602;SDS011;28233;55.748;48.752;2023-04-25T08:26:13;5.00;;;1.60;;
42602;SDS011;28233;55.748;48.752;2023-04-25T08:28:17;11.07;;;1.77;;
42602;SDS011;28233;55.748;48.752;2023-04-25T08:30:19;11.57;;;1.83;;
42602;SDS011;28233;55.748;48.752;2023-04-25T08:32:23;7.60;;;2.10;;
42602;SDS011;28233;55.748;48.752;2023-04-25T08:34:25;7.07;;;1.67;;
42602;SDS011;28233;55.748;48.752;2023-04-25T08:36:28;16.00;;;2.13;;
42602;SDS011;28233;55.748;48.752;2023-04-25T08:38:33;7.47;;;1.35;;
42602;SDS011;28233;55.748;48.752;2023-04-25T08:40:37;6.82;;;1.67;;
42602;SDS011;28233;55.748;48.752;2023-04-25T08:42:41;9.85;;;1.35;;
42602;SDS011;28233;55.748;48.752;2023-04-25T08:44:45;5.43;;;2.03;;
42602;SDS011;28233;55.748;48.752;2023-04-25T08:46:48;4.95;;;1.48;;
42602;SDS011;28233;55.748;48.752;2023-04-25T08:48:52;9.57;;;2.28;;
42602;SDS011;28233;55.748;48.752;2023-04-25T08:50:59;11.77;;;2.67;;
42602;SDS011;28233;55.748;48.752;2023-04-25T08:53:04;7.57;;;1.63;;
42602;SDS011;28233;55.748;48.752;2023-04-25T08:55:12;10.70;;;1.80;;
42602;SDS011;28233;55.748;48.752;2023-04-25T08:57:16;4.47;;;1.45;;
42602;SDS011;28233;55.748;48.752;2023-04-25T08:59:19;7.18;;;1.63;;
42602;SDS011;28233;55.748;48.752;2023-04-25T09:01:24;7.18;;;1.75;;
42602;SDS011;28233;55.748;48.752;2023-04-25T09:03:28;4.03;;;1.70;;
42602;SDS011;28233;55.748;48.752;2023-04-25T09:05:33;5.18;;;2.78;;
42602;SDS011;28233;55.748;48.752;2023-04-25T09:07:37;16.38;;;1.98;;
42602;SDS011;28233;55.748;48.752;2023-04-25T09:09:40;7.03;;;1.65;;
42602;SDS011;28233;55.748;48.752;2023-04-25T09:11:42;6.93;;;1.52;;
42602;SDS011;28233;55.748;48.752;2023-04-25T09:13:45;10.13;;;2.00;;
42602;SDS011;28233;55.748;48.752;2023-04-25T09:15:48;5.38;;;1.73;;
42602;SDS011;28233;55.748;48.752;2023-04-25T09:17:59;6.20;;;2.47;;
42602;SDS011;28233;55.748;48.752;2023-04-25T09:20:05;14.38;;;2.75;;
42602;SDS011;28233;55.748;48.752;2023-04-25T09:22:10;8.80;;;2.80;;
42602;SDS011;28233;55.748;48.752;2023-04-25T09:24:12;12.38;;;3.13;;
42602;SDS011;28233;55.748;48.752;2023-04-25T09:26:16;3.85;;;2.47;;
42602;SDS011;28233;55.748;48.752;2023-04-25T09:28:24;6.45;;;2.55;;
42602;SDS011;28233;55.748;48.752;2023-04-25T09:30:32;3.50;;;1.90;;
42602;SDS011;28233;55.748;48.752;2023-04-25T09:32:36;9.43;;;3.38;;
42602;SDS011;28233;55.748;48.752;2023-04-25T09:34:42;5.25;;;2.03;;
42602;SDS011;28233;55.748;48.752;2023-04-25T09:36:46;11.77;;;2.63;;
42602;SDS011;28233;55.748;48.752;2023-04-25T09:38:48;5.07;;;2.13;;
42602;SDS011;28233;55.748;48.752;2023-04-25T09:40:51;7.53;;;2.38;;
42602;SDS011;28233;55.748;48.752;2023-04-25T09:42:54;7.65;;;2.38;;
42602;SDS011;28233;55.748;48.752;2023-04-25T09:44:57;12.32;;;2.47;;
42602;SDS011;28233;55.748;48.752;2023-04-25T09:47:01;5.40;;;2.28;;
42602;SDS011;28233;55.748;48.752;2023-04-25T09:49:07;5.80;;;2.85;;
42602;SDS011;28233;55.748;48.752;2023-04-25T09:51:12;7.22;;;2.80;;
42602;SDS011;28233;55.748;48.752;2023-04-25T09:53:15;14.07;;;3.75;;
42602;SDS011;28233;55.748;48.752;2023-04-25T09:55:18;10.75;;;2.53;;
42602;SDS011;28233;55.748;48.752;2023-04-25T09:57:23;5.22;;;2.03;;
42602;SDS011;28233;55.748;48.752;2023-04-25T09:59:26;4.13;;;1.98;;
42602;SDS011;28233;55.748;48.752;2023-04-25T10:01:33;8.20;;;2.72;;
42602;SDS011;28233;55.748;48.752;2023-04-25T10:03:41;4.57;;;1.58;;
42602;SDS011;28233;55.748;48.752;2023-04-25T10:05:51;10.90;;;2.55;;
42602;SDS011;28233;55.748;48.752;2023-04-25T10:07:56;13.82;;;1.95;;
42602;SDS011;28233;55.748;48.752;2023-04-25T10:10:03;4.50;;;2.22;;
42602;SDS011;28233;55.748;48.752;2023-04-25T10:12:07;7.72;;;1.58;;
42602;SDS011;28233;55.748;48.752;2023-04-25T10:14:11;7.68;;;2.53;;
42602;SDS011;28233;55.748;48.752;2023-04-25T10:16:15;9.20;;;1.77;;
42602;SDS011;28233;55.748;48.752;2023-04-25T10:18:18;8.10;;;2.05;;
42602;SDS011;28233;55.748;48.752;2023-04-25T10:20:22;16.48;;;3.10;;
42602;SDS011;28233;55.748;48.752;2023-04-25T10:24:38;5.20;;;1.80;;
42602;SDS011;28233;55.748;48.752;2023-04-25T10:26:41;12.32;;;2.67;;
42602;SDS011;28233;55.748;48.752;2023-04-25T10:28:55;6.13;;;2.00;;
42602;SDS011;28233;55.748;48.752;2023-04-25T10:31:03;7.60;;;2.60;;
42602;SDS011;28233;55.748;48.752;2023-04-25T10:33:17;4.43;;;2.03;;
42602;SDS011;28233;55.748;48.752;2023-04-25T10:35:28;8.48;;;1.88;;
42602;SDS011;28233;55.748;48.752;2023-04-25T10:37:34;18.13;;;2.10;;
42602;SDS011;28233;55.748;48.752;2023-04-25T10:39:42;17.90;;;2.88;;
42602;SDS011;28233;55.748;48.752;2023-04-25T10:41:47;5.00;;;1.50;;
42602;SDS011;28233;55.748;48.752;2023-04-25T10:43:59;8.57;;;2.08;;
42602;SDS011;28233;55.748;48.752;2023-04-25T10:48:25;11.57;;;2.28;;
42602;SDS011;28233;55.748;48.752;2023-04-25T10:50:36;14.55;;;2.30;;
42602;SDS011;28233;55.748;48.752;2023-04-25T10:52:42;11.63;;;2.97;;
42602;SDS011;28233;55.748;48.752;2023-04-25T10:54:49;7.45;;;2.00;;
42602;SDS011;28233;55.748;48.752;2023-04-25T10:56:58;7.20;;;2.00;;
42602;SDS011;28233;55.748;48.752;2023-04-25T10:59:16;16.73;;;2.40;;
42602;SDS011;28233;55.748;48.752;2023-04-25T11:01:20;3.47;;;1.70;;
42602;SDS011;28233;55.748;48.752;2023-04-25T11:03:26;11.45;;;2.10;;
42602;SDS011;28233;55.748;48.752;2023-04-25T11:05:31;10.27;;;2.22;;
42602;SDS011;28233;55.748;48.752;2023-04-25T11:07:56;11.65;;;2.90;;
42602;SDS011;28233;55.748;48.752;2023-04-25T11:10:09;20.75;;;3.30;;
42602;SDS011;28233;55.748;48.752;2023-04-25T11:12:12;5.38;;;2.33;;
42602;SDS011;28233;55.748;48.752;2023-04-25T11:14:15;11.00;;;2.50;;
42602;SDS011;28233;55.748;48.752;2023-04-25T11:16:18;11.05;;;2.20;;
42602;SDS011;28233;55.748;48.752;2023-04-25T11:18:29;47.38;;;4.10;;
42602;SDS011;28233;55.748;48.752;2023-04-25T11:20:32;24.67;;;3.30;;
42602;SDS011;28233;55.748;48.752;2023-04-25T11:22:35;43.45;;;4.85;;
42602;SDS011;28233;55.748;48.752;2023-04-25T11:24:37;15.77;;;1.85;;
42602;SDS011;28233;55.748;48.752;2023-04-25T11:26:43;8.40;;;2.55;;
42602;SDS011;28233;55.748;48.752;2023-04-25T11:28:49;7.30;;;1.80;;
42602;SDS011;28233;55.748;48.752;2023-04-25T11:30:52;14.35;;;2.97;;
42602;SDS011;28233;55.748;48.752;2023-04-25T11:32:55;13.70;;;2.55;;
42602;SDS011;28233;55.748;48.752;2023-04-25T11:34:57;12.48;;;2.80;;
42602;SDS011;28233;55.748;48.752;2023-04-25T11:37:00;6.45;;;2.20;;
42602;SDS011;28233;55.748;48.752;2023-04-25T11:39:04;11.95;;;2.70;;
42602;SDS011;28233;55.748;48.752;2023-04-25T11:41:08;10.85;;;2.00;;
42602;SDS011;28233;55.748;48.752;2023-04-25T11:43:10;11.45;;;2.50;;
42602;SDS011;28233;55.748;48.752;2023-04-25T11:45:13;12.70;;;1.75;;
42602;SDS011;28233;55.748;48.752;2023-04-25T11:47:17;4.80;;;1.98;;
42602;SDS011;28233;55.748;48.752;2023-04-25T11:49:21;4.65;;;1.80;;
42602;SDS011;28233;55.748;48.752;2023-04-25T11:51:24;20.88;;;2.30;;
42602;SDS011;28233;55.748;48.752;2023-04-25T11:53:27;7.63;;;1.45;;
42602;SDS011;28233;55.748;48.752;2023-04-25T11:55:30;8.27;;;1.90;;
42602;SDS011;28233;55.748;48.752;2023-04-25T11:57:33;9.23;;;1.88;;
42602;SDS011;28233;55.748;48.752;2023-04-25T11:59:36;10.10;;;1.80;;
42602;SDS011;28233;55.748;48.752;2023-04-25T12:01:39;8.10;;;1.60;;
42602;SDS011;28233;55.748;48.752;2023-04-25T12:03:45;3.22;;;2.05;;
42602;SDS011;28233;55.748;48.752;2023-04-25T12:05:48;7.63;;;1.42;;
42602;SDS011;28233;55.748;48.752;2023-04-25T12:07:52;13.43;;;1.95;;
42602;SDS011;28233;55.748;48.752;2023-04-25T12:09:55;19.35;;;2.33;;
42602;SDS011;28233;55.748;48.752;2023-04-25T12:11:58;5.80;;;1.67;;
42602;SDS011;28233;55.748;48.752;2023-04-25T12:14:05;5.03;;;1.58;;
42602;SDS011;28233;55.748;48.752;2023-04-25T12:16:07;8.40;;;2.03;;